Time;durP1;ratioP1;P1;durP2;ratioP2;P2;SDS_P1;SDS_P2;PMS_P1;PMS_P2;Temp;Humidity;BMP_temperature;BMP_pressure;BME280_temperature;BME280_humidity;BME280_pressure;Samples;Min_cycle;Max_cycle;Signal;HPM_P1;HPM_P2
2022/06/09 00:01:55;;;;;;;38.42;12.70;;;15.10;99.90;;;;;;5056164;28;20382;-69
2022/06/09 00:04:36;;;;;;;27.98;11.77;;;15.20;99.90;;;;;;5074211;28;20036;-69
2022/06/09 00:07:08;;;;;;;24.65;11.10;;;15.20;99.90;;;;;;5056002;28;20490;-71
2022/06/09 00:09:39;;;;;;;29.63;10.10;;;15.20;99.90;;;;;;5073307;28;20414;-69
2022/06/09 00:12:06;;;;;;;24.17;10.43;;;15.30;99.90;;;;;;5039552;28;20353;-69
2022/06/09 00:14:32;;;;;;;35.33;11.60;;;15.30;99.90;;;;;;5057901;28;20110;-69
2022/06/09 00:16:58;;;;;;;33.95;11.90;;;15.20;99.90;;;;;;5056096;28;20071;-69
2022/06/09 00:19:24;;;;;;;25.17;10.63;;;15.20;99.90;;;;;;5055415;28;20076;-70
2022/06/09 00:21:49;;;;;;;29.83;11.30;;;15.20;99.90;;;;;;5078288;28;20036;-69
2022/06/09 00:24:17;;;;;;;38.33;12.00;;;15.00;99.90;;;;;;5094184;28;20044;-70
2022/06/09 00:26:43;;;;;;;30.70;11.07;;;15.20;99.90;;;;;;5094032;28;20433;-72
2022/06/09 00:29:09;;;;;;;31.92;12.05;;;15.20;99.90;;;;;;5074920;28;20037;-68
2022/06/09 00:31:34;;;;;;;36.83;12.55;;;15.10;99.90;;;;;;5093785;28;20036;-69
2022/06/09 00:34:00;;;;;;;31.63;12.05;;;15.00;99.90;;;;;;5075761;28;20062;-69
2022/06/09 00:36:25;;;;;;;32.72;12.20;;;14.90;99.90;;;;;;5075807;28;20089;-70
2022/06/09 00:38:51;;;;;;;30.13;11.00;;;;;;;;;;5075243;28;20042;-75
2022/06/09 00:41:17;;;;;;;35.17;13.60;;;15.00;99.90;;;;;;5093336;28;20032;-69
2022/06/09 00:43:44;;;;;;;37.45;13.35;;;15.10;99.90;;;;;;5075605;28;20047;-69
2022/06/09 00:46:10;;;;;;;32.53;11.73;;;15.10;99.90;;;;;;5075477;28;20457;-72
2022/06/09 00:48:47;;;;;;;32.88;12.50;;;15.00;99.90;;;;;;5092920;28;20138;-69
2022/06/09 00:51:31;;;;;;;28.73;11.98;;;14.90;99.90;;;;;;5054472;28;20573;-68
2022/06/09 00:54:30;;;;;;;29.25;12.45;;;15.00;99.90;;;;;;5054733;28;20128;-69
2022/06/09 00:57:09;;;;;;;30.08;11.50;;;14.90;99.90;;;;;;5068443;28;20056;-69
2022/06/09 00:59:37;;;;;;;29.58;10.65;;;14.80;99.90;;;;;;5072518;28;20076;-72
2022/06/09 01:02:06;;;;;;;36.65;11.82;;;15.00;99.90;;;;;;5055036;28;20044;-69
2022/06/09 01:04:33;;;;;;;26.35;10.43;;;15.00;99.90;;;;;;5055142;28;20100;-69
2022/06/09 01:07:08;;;;;;;38.35;11.25;;;14.90;99.90;;;;;;5054994;28;20071;-69
2022/06/09 01:09:35;;;;;;;31.70;10.43;;;15.00;99.90;;;;;;5054450;28;20457;-69
2022/06/09 01:12:00;;;;;;;24.35;9.90;;;14.70;99.90;;;;;;5055730;28;20123;-69
2022/06/09 01:14:29;;;;;;;23.88;10.48;;;14.80;99.90;;;;;;5071721;28;20138;-70
2022/06/09 01:17:14;;;;;;;33.10;10.52;;;14.70;99.90;;;;;;5055730;28;20136;-69
2022/06/09 01:19:48;;;;;;;31.08;10.07;;;14.60;99.90;;;;;;5074274;28;20055;-69
2022/06/09 01:22:40;;;;;;;27.50;10.48;;;14.70;99.90;;;;;;5092732;28;20405;-69
2022/06/09 01:25:38;;;;;;;23.40;10.02;;;14.70;99.90;;;;;;5043895;28;20056;-69
2022/06/09 01:28:39;;;;;;;25.50;9.40;;;14.70;99.90;;;;;;5074363;28;20051;-69
2022/06/09 01:31:11;;;;;;;22.20;9.55;;;14.50;99.90;;;;;;5074209;28;20123;-71
2022/06/09 01:33:48;;;;;;;32.15;10.45;;;14.60;99.90;;;;;;5091835;28;20447;-72
2022/06/09 01:36:50;;;;;;;24.52;10.38;;;14.50;99.90;;;;;;5074553;28;20055;-69
2022/06/09 01:39:16;;;;;;;25.10;8.88;;;14.60;99.90;;;;;;5073776;28;20052;-69
2022/06/09 01:41:48;;;;;;;22.23;8.68;;;14.40;99.90;;;;;;5078745;22;20084;-69
2022/06/09 01:44:15;;;;;;;29.15;10.10;;;14.30;99.90;;;;;;5032590;28;20038;-69
2022/06/09 01:46:44;;;;;;;37.63;9.88;;;14.30;99.90;;;;;;5046216;28;20041;-70
2022/06/09 01:49:14;;;;;;;29.27;9.43;;;14.30;99.90;;;;;;5033757;28;20120;-68
2022/06/09 01:51:42;;;;;;;23.58;9.68;;;14.10;99.90;;;;;;5051077;28;20043;-69
2022/06/09 01:54:19;;;;;;;24.33;8.98;;;14.20;99.90;;;;;;5051287;28;20044;-70
2022/06/09 01:56:55;;;;;;;27.83;9.15;;;14.10;99.90;;;;;;5051335;28;20457;-69
2022/06/09 01:59:26;;;;;;;25.58;8.88;;;14.00;99.90;;;;;;5050220;28;20056;-70
2022/06/09 02:02:03;;;;;;;17.00;8.75;;;14.10;99.90;;;;;;5051230;28;20403;-70
2022/06/09 02:04:51;;;;;;;24.33;9.25;;;14.10;99.90;;;;;;5050668;28;20569;-70
2022/06/09 02:07:20;;;;;;;30.80;11.73;;;14.10;99.90;;;;;;5051066;28;20048;-69
2022/06/09 02:09:46;;;;;;;25.23;10.30;;;14.00;99.90;;;;;;5033433;28;20052;-69
2022/06/09 02:12:14;;;;;;;43.53;10.00;;;13.90;99.90;;;;;;5050588;28;20047;-70
2022/06/09 02:14:44;;;;;;;31.15;10.43;;;13.80;99.90;;;;;;5040227;28;20043;-70
2022/06/09 02:17:10;;;;;;;27.50;8.93;;;14.00;99.90;;;;;;5032179;28;20037;-69
2022/06/09 02:19:38;;;;;;;25.70;9.52;;;14.20;99.90;;;;;;5031291;28;20484;-69
2022/06/09 02:22:06;;;;;;;25.10;10.23;;;14.00;99.90;;;;;;5030736;28;20041;-70
2022/06/09 02:24:32;;;;;;;19.98;8.98;;;13.90;99.90;;;;;;5030827;28;20069;-70
2022/06/09 02:26:58;;;;;;;24.35;9.40;;;14.00;99.90;;;;;;5031917;28;20038;-69
2022/06/09 02:29:24;;;;;;;24.73;10.18;;;13.90;99.90;;;;;;5015778;28;20056;-69
2022/06/09 02:31:50;;;;;;;18.40;10.00;;;14.10;99.90;;;;;;5034625;28;20041;-69
2022/06/09 02:34:16;;;;;;;30.83;9.93;;;14.00;99.90;;;;;;5034877;28;20045;-69
2022/06/09 02:36:42;;;;;;;22.10;9.88;;;14.00;99.90;;;;;;5030570;28;20507;-69
2022/06/09 02:39:08;;;;;;;17.67;8.75;;;14.10;99.90;;;;;;5031008;28;20454;-69
2022/06/09 02:41:34;;;;;;;17.50;9.02;;;14.20;99.90;;;;;;5032015;28;20128;-69
2022/06/09 02:44:00;;;;;;;21.60;9.02;;;;;;;;;;5050261;28;20468;-70
2022/06/09 02:46:26;;;;;;;20.90;9.98;;;14.20;99.90;;;;;;5050505;28;20128;-70
2022/06/09 02:48:53;;;;;;;18.88;9.10;;;;;;;;;;5049854;28;20098;-68
2022/06/09 02:51:31;;;;;;;24.98;10.10;;;14.20;99.90;;;;;;5050173;28;20045;-68
2022/06/09 02:53:59;;;;;;;18.13;9.35;;;14.10;99.90;;;;;;5050122;28;20502;-69
2022/06/09 02:56:25;;;;;;;25.27;10.43;;;14.30;99.90;;;;;;5050486;28;20388;-69
2022/06/09 02:58:51;;;;;;;27.73;11.05;;;14.10;99.90;;;;;;5051392;28;20143;-68
2022/06/09 03:01:17;;;;;;;22.95;10.48;;;14.20;99.90;;;;;;5049883;28;20124;-69
2022/06/09 03:03:43;;;;;;;19.75;9.10;;;;;;;;;;5050121;28;20088;-69
2022/06/09 03:06:09;;;;;;;16.70;8.43;;;14.30;99.90;;;;;;5050342;28;20534;-69
2022/06/09 03:08:35;;;;;;;27.25;10.15;;;14.20;99.90;;;;;;5033599;28;20067;-70
2022/06/09 03:11:00;;;;;;;20.65;10.13;;;14.10;99.90;;;;;;5038343;28;20109;-69
2022/06/09 03:13:27;;;;;;;15.70;8.20;;;14.10;99.90;;;;;;5030493;28;20055;-69
2022/06/09 03:15:53;;;;;;;17.77;8.70;;;14.00;99.90;;;;;;5031570;28;20045;-69
2022/06/09 03:18:19;;;;;;;16.00;8.38;;;14.20;99.90;;;;;;5035368;28;20553;-69
2022/06/09 03:20:46;;;;;;;18.20;10.52;;;14.30;99.90;;;;;;5033462;28;20041;-69
2022/06/09 03:23:12;;;;;;;18.58;9.88;;;14.10;99.90;;;;;;5034353;28;20546;-69
2022/06/09 03:25:38;;;;;;;14.25;9.40;;;;;;;;;;5035369;28;20121;-70
2022/06/09 03:28:05;;;;;;;18.02;8.38;;;14.10;99.90;;;;;;5036417;28;20048;-69
2022/06/09 03:30:32;;;;;;;14.18;8.70;;;14.10;99.90;;;;;;5033205;28;20041;-69
2022/06/09 03:32:58;;;;;;;18.80;8.90;;;14.10;99.90;;;;;;5033858;28;20064;-70
2022/06/09 03:35:24;;;;;;;18.10;8.18;;;14.20;99.90;;;;;;5033856;28;20083;-69
2022/06/09 03:37:50;;;;;;;20.70;8.82;;;;;;;;;;5033720;28;20045;-69
2022/06/09 03:40:23;;;;;;;23.05;8.90;;;14.00;99.90;;;;;;5035241;28;20140;-70
2022/06/09 03:42:49;;;;;;;17.88;8.93;;;;;;;;;;5053450;28;20080;-70
2022/06/09 03:45:16;;;;;;;18.08;8.82;;;14.20;99.90;;;;;;5053627;28;20077;-70
2022/06/09 03:47:42;;;;;;;14.10;9.73;;;;;;;;;;5053834;28;20459;-69
2022/06/09 03:50:13;;;;;;;17.67;11.18;;;14.40;99.90;;;;;;5052897;28;20072;-70
2022/06/09 03:52:39;;;;;;;17.70;11.57;;;14.20;99.90;;;;;;5053067;28;20029;-69
2022/06/09 03:55:05;;;;;;;18.27;10.90;;;14.30;99.90;;;;;;5053888;28;20090;-69
2022/06/09 03:57:30;;;;;;;21.25;12.45;;;14.20;99.90;;;;;;5054410;28;20040;-69
2022/06/09 03:59:56;;;;;;;17.17;12.68;;;14.20;99.90;;;;;;5050695;28;20496;-71
2022/06/09 04:02:23;;;;;;;30.20;15.90;;;14.10;99.90;;;;;;5054983;28;20080;-70
2022/06/09 04:04:50;;;;;;;22.75;14.77;;;;;;;;;;5036657;28;20463;-69
2022/06/09 04:07:16;;;;;;;26.23;17.80;;;14.00;99.90;;;;;;5044068;28;20049;-69
2022/06/09 04:09:41;;;;;;;32.05;19.42;;;14.10;99.90;;;;;;5033861;28;20042;-69
2022/06/09 04:12:07;;;;;;;33.95;20.45;;;;;;;;;;5033380;28;20583;-70
2022/06/09 04:14:33;;;;;;;31.45;18.98;;;14.30;99.90;;;;;;5033042;28;20041;-69
2022/06/09 04:16:58;;;;;;;33.75;20.80;;;14.20;99.90;;;;;;5033307;28;20167;-69
2022/06/09 04:19:24;;;;;;;32.17;20.00;;;14.00;99.90;;;;;;5015847;28;20083;-70
2022/06/09 04:21:51;;;;;;;32.63;18.80;;;14.20;99.90;;;;;;5034195;28;20045;-70
2022/06/09 04:24:17;;;;;;;35.28;21.63;;;14.20;99.90;;;;;;5033175;28;20045;-70
2022/06/09 04:26:44;;;;;;;35.03;19.55;;;14.00;99.90;;;;;;5016483;28;20404;-70
2022/06/09 04:29:12;;;;;;;39.35;21.10;;;14.10;99.90;;;;;;5015619;28;20042;-69
2022/06/09 04:31:40;;;;;;;34.53;21.10;;;14.30;99.90;;;;;;5032710;28;20092;-70
2022/06/09 04:34:05;;;;;;;32.03;20.30;;;14.20;99.90;;;;;;5032747;28;20048;-70
2022/06/09 04:36:31;;;;;;;37.75;21.65;;;;;;;;;;5049882;28;20037;-70
2022/06/09 04:38:57;;;;;;;33.72;19.90;;;13.90;99.90;;;;;;5052057;28;20140;-70
2022/06/09 04:41:23;;;;;;;40.20;20.42;;;14.40;99.90;;;;;;5052436;28;20128;-71
2022/06/09 04:43:49;;;;;;;35.50;21.63;;;14.00;99.90;;;;;;5052660;28;20041;-70
2022/06/09 04:46:21;;;;;;;42.35;23.80;;;14.20;99.90;;;;;;5052710;28;20422;-70
2022/06/09 04:48:46;;;;;;;38.42;22.08;;;14.20;99.90;;;;;;5052405;28;20036;-70
2022/06/09 04:51:16;;;;;;;43.30;23.88;;;14.20;99.90;;;;;;5053044;28;20124;-70
2022/06/09 04:53:43;;;;;;;38.88;22.73;;;14.10;99.90;;;;;;5052491;28;20083;-70
2022/06/09 04:56:09;;;;;;;39.13;22.27;;;14.30;99.90;;;;;;5052689;28;20391;-70
2022/06/09 04:58:39;;;;;;;38.20;23.52;;;14.20;99.90;;;;;;5036073;28;20395;-70
2022/06/09 05:01:06;;;;;;;42.03;24.67;;;14.20;99.90;;;;;;5051655;28;20148;-70
2022/06/09 05:03:33;;;;;;;40.80;25.13;;;;;;;;;;5044518;28;20041;-69
2022/06/09 05:05:58;;;;;;;37.63;23.30;;;14.50;99.90;;;;;;5015723;28;20046;-70
2022/06/09 05:08:25;;;;;;;37.45;22.75;;;14.50;99.90;;;;;;5033601;28;20040;-70
2022/06/09 05:10:50;;;;;;;32.50;21.02;;;14.50;99.90;;;;;;5032607;28;20083;-70
2022/06/09 05:13:17;;;;;;;37.47;20.75;;;14.20;99.90;;;;;;5032334;28;20033;-70
2022/06/09 05:15:50;;;;;;;33.58;20.30;;;14.30;99.90;;;;;;5032089;28;20620;-69
2022/06/09 05:18:17;;;;;;;32.22;19.70;;;14.60;99.90;;;;;;5032187;28;20041;-70
2022/06/09 05:20:43;;;;;;;26.98;18.27;;;;;;;;;;5014644;28;20125;-69
2022/06/09 05:23:09;;;;;;;27.17;19.27;;;14.60;99.90;;;;;;5031822;28;20179;-70
2022/06/09 05:25:35;;;;;;;33.30;19.58;;;14.60;99.90;;;;;;5015275;28;20536;-70
2022/06/09 05:28:00;;;;;;;26.35;18.60;;;14.80;99.90;;;;;;5033161;28;20042;-70
2022/06/09 05:30:26;;;;;;;24.10;16.95;;;;;;;;;;5031174;28;20104;-70
2022/06/09 05:32:52;;;;;;;28.05;18.35;;;14.80;99.90;;;;;;5049027;28;20036;-71
2022/06/09 05:35:19;;;;;;;22.83;17.55;;;14.80;99.90;;;;;;5053164;28;20036;-70
2022/06/09 05:46:01;;;;;;;26.08;18.38;;;14.70;99.90;;;;;;5051285;28;20127;-70
2022/06/09 05:48:27;;;;;;;23.23;17.42;;;14.70;99.90;;;;;;5022880;28;20530;-70
2022/06/09 05:50:54;;;;;;;21.95;16.00;;;15.10;99.90;;;;;;5027474;28;20049;-70
2022/06/09 05:53:20;;;;;;;27.58;18.42;;;;;;;;;;5010445;28;20407;-70
2022/06/09 05:55:46;;;;;;;19.95;16.13;;;15.00;99.90;;;;;;5026643;28;20132;-71
2022/06/09 05:58:11;;;;;;;20.45;16.17;;;15.10;99.90;;;;;;5028563;28;20121;-70
2022/06/09 06:00:38;;;;;;;19.38;15.35;;;15.00;99.90;;;;;;5030970;28;20469;-70
2022/06/09 06:03:04;;;;;;;18.45;14.80;;;15.30;99.90;;;;;;5028278;28;20401;-71
2022/06/09 06:08:15;;;;;;;19.35;14.70;;;;;;;;;;5021023;28;20065;-70
2022/06/09 06:10:41;;;;;;;18.83;14.95;;;;;;;;;;5027193;28;20043;-70
2022/06/09 06:13:07;;;;;;;18.52;13.50;;;15.90;99.90;;;;;;5025291;28;20749;-71
2022/06/09 06:15:32;;;;;;;20.92;14.63;;;15.90;99.90;;;;;;5010584;28;20076;-70
2022/06/09 06:18:02;;;;;;;20.35;13.98;;;16.00;99.90;;;;;;5026316;28;20049;-70
2022/06/09 06:20:29;;;;;;;15.63;13.55;;;16.10;99.90;;;;;;5025501;28;20105;-70
2022/06/09 06:22:55;;;;;;;21.48;12.45;;;16.10;99.90;;;;;;5027670;28;20047;-71
2022/06/09 06:25:21;;;;;;;21.17;13.50;;;;;;;;;;5028660;28;20042;-70
2022/06/09 06:27:47;;;;;;;16.10;11.45;;;16.10;99.90;;;;;;5031297;28;20104;-70
2022/06/09 06:30:13;;;;;;;13.23;10.90;;;16.10;99.90;;;;;;5028639;28;20040;-71
2022/06/09 06:32:38;;;;;;;13.07;10.98;;;16.20;99.90;;;;;;5019077;28;20033;-71
2022/06/09 06:35:04;;;;;;;14.70;9.63;;;16.40;99.90;;;;;;5019541;28;20041;-70
2022/06/09 06:37:30;;;;;;;15.15;9.07;;;;;;;;;;5016815;28;20050;-69
2022/06/09 06:39:56;;;;;;;10.98;8.93;;;16.30;99.90;;;;;;5026616;28;20044;-70
2022/06/09 06:42:21;;;;;;;9.40;7.20;;;16.40;99.90;;;;;;5013969;28;20048;-70
2022/06/09 06:44:47;;;;;;;14.07;7.55;;;16.50;99.90;;;;;;5030479;28;20064;-70
2022/06/09 06:47:13;;;;;;;11.13;8.05;;;16.70;99.90;;;;;;5031854;28;20037;-69
2022/06/09 06:49:38;;;;;;;9.98;7.30;;;16.80;99.90;;;;;;5030490;28;20537;-70
2022/06/09 06:52:04;;;;;;;9.05;7.72;;;;;;;;;;5030258;28;20049;-70
2022/06/09 06:54:30;;;;;;;9.10;6.65;;;16.90;99.90;;;;;;5031952;28;20048;-70
2022/06/09 06:56:56;;;;;;;14.40;5.90;;;16.60;99.90;;;;;;5023723;28;20410;-70
2022/06/09 06:59:21;;;;;;;12.57;6.45;;;16.70;99.90;;;;;;5049562;28;20044;-70
2022/06/09 07:01:47;;;;;;;8.10;5.00;;;16.90;99.90;;;;;;5051839;28;20052;-70
2022/06/09 07:04:13;;;;;;;10.15;5.65;;;17.00;99.90;;;;;;5033702;28;20048;-70
2022/06/09 07:06:38;;;;;;;9.02;5.38;;;17.20;99.90;;;;;;5051715;28;20040;-70
2022/06/09 07:09:04;;;;;;;9.32;4.90;;;17.20;99.90;;;;;;5051096;28;20069;-70
2022/06/09 07:11:30;;;;;;;7.43;4.25;;;17.20;99.90;;;;;;5049974;28;20511;-70
2022/06/09 07:13:56;;;;;;;7.90;4.40;;;17.40;99.90;;;;;;5050380;28;20688;-70
2022/06/09 07:16:21;;;;;;;6.45;4.40;;;17.50;99.90;;;;;;5050115;28;20033;-70
2022/06/09 07:18:47;;;;;;;8.15;3.65;;;17.50;99.90;;;;;;5048557;28;20032;-70
2022/06/09 07:21:14;;;;;;;8.45;3.95;;;17.60;99.90;;;;;;5050591;28;20025;-70
2022/06/09 07:23:39;;;;;;;8.63;3.45;;;17.80;99.90;;;;;;5050455;28;20510;-69
2022/06/09 07:26:06;;;;;;;5.68;3.13;;;17.80;99.90;;;;;;5032028;28;20045;-70
2022/06/09 07:28:32;;;;;;;4.97;2.55;;;18.70;99.90;;;;;;5013707;28;20048;-70
2022/06/09 07:30:59;;;;;;;6.97;2.30;;;17.40;99.90;;;;;;5030802;28;20073;-70
2022/06/09 07:33:31;;;;;;;7.57;2.03;;;17.80;99.90;;;;;;5030194;28;20045;-69
2022/06/09 07:35:58;;;;;;;5.80;2.20;;;17.90;99.90;;;;;;5030289;28;20052;-70
2022/06/09 07:38:24;;;;;;;7.10;1.95;;;18.00;99.90;;;;;;5030131;28;20041;-71
2022/06/09 07:40:51;;;;;;;9.48;2.80;;;18.00;99.90;;;;;;5030603;28;20041;-70
2022/06/09 07:43:19;;;;;;;6.50;2.05;;;18.00;99.90;;;;;;5105530;22;20055;-69
2022/06/09 07:45:46;;;;;;;5.50;1.98;;;18.20;99.90;;;;;;5072750;28;20040;-70
2022/06/09 07:48:12;;;;;;;5.85;1.90;;;18.10;99.90;;;;;;5073202;28;20036;-70
2022/06/09 07:50:38;;;;;;;9.40;2.28;;;18.20;99.90;;;;;;5090300;28;20039;-67
2022/06/09 07:53:05;;;;;;;5.15;1.83;;;18.20;99.90;;;;;;5082750;28;20041;-68
2022/06/09 07:55:31;;;;;;;5.45;1.85;;;18.20;99.90;;;;;;5053117;28;20037;-70
2022/06/09 07:57:56;;;;;;;3.08;1.50;;;18.20;99.90;;;;;;5052905;28;20533;-68
2022/06/09 08:00:23;;;;;;;5.47;1.98;;;18.40;99.90;;;;;;5069952;28;20094;-68
2022/06/09 08:02:49;;;;;;;8.10;1.83;;;18.20;99.90;;;;;;5073387;28;20077;-69
2022/06/09 08:05:18;;;;;;;6.90;1.67;;;17.80;99.90;;;;;;5074215;28;20075;-69
2022/06/09 08:07:44;;;;;;;10.05;2.38;;;18.30;99.90;;;;;;5056380;28;20043;-68
2022/06/09 08:10:14;;;;;;;3.85;1.70;;;18.40;99.90;;;;;;5073500;28;20037;-69
2022/06/09 08:12:39;;;;;;;7.38;1.95;;;18.20;99.90;;;;;;5073895;28;20037;-69
2022/06/09 08:15:06;;;;;;;4.25;1.65;;;18.40;99.90;;;;;;5056269;28;20037;-69
2022/06/09 08:17:32;;;;;;;6.55;1.70;;;18.60;99.90;;;;;;5074221;28;20377;-68
2022/06/09 08:19:57;;;;;;;5.82;1.85;;;18.40;99.90;;;;;;5073307;28;20405;-69
2022/06/09 08:22:23;;;;;;;6.65;1.92;;;18.60;99.90;;;;;;5091664;28;20039;-69
2022/06/09 08:24:48;;;;;;;9.82;1.88;;;18.70;99.90;;;;;;5094049;28;20079;-68
2022/06/09 08:27:14;;;;;;;12.15;3.05;;;20.10;99.90;;;;;;5075717;28;20118;-69
2022/06/09 08:29:41;;;;;;;8.45;1.98;;;19.10;99.90;;;;;;5075035;28;20105;-69
2022/06/09 08:32:07;;;;;;;6.95;1.98;;;19.00;99.90;;;;;;5094330;28;20081;-69
2022/06/09 08:34:32;;;;;;;13.57;3.28;;;20.50;99.90;;;;;;5094152;28;20329;-69
2022/06/09 08:36:58;;;;;;;9.15;2.25;;;19.90;99.90;;;;;;5075968;28;20032;-69
2022/06/09 08:39:24;;;;;;;13.15;2.40;;;19.30;99.90;;;;;;5092971;28;20485;-69
2022/06/09 08:42:08;;;;;;;8.23;2.30;;;19.00;99.90;;;;;;5093464;28;20064;-69
2022/06/09 08:44:55;;;;;;;7.85;1.98;;;19.00;99.90;;;;;;5093843;28;20098;-68
2022/06/09 08:47:28;;;;;;;8.10;2.13;;;19.00;99.90;;;;;;5093782;28;20042;-68
2022/06/09 08:50:00;;;;;;;7.95;2.42;;;18.30;99.90;;;;;;5062499;28;20040;-69
2022/06/09 08:52:44;;;;;;;8.77;2.05;;;18.90;99.90;;;;;;5072908;28;20101;-69
2022/06/09 08:55:34;;;;;;;9.43;2.60;;;19.10;99.90;;;;;;5073515;28;20456;-70
2022/06/09 08:58:22;;;;;;;4.25;1.60;;;19.00;99.90;;;;;;5073587;28;20217;-69
2022/06/09 09:01:02;;;;;;;8.70;1.95;;;19.20;99.90;;;;;;5054727;28;20036;-68
2022/06/09 09:03:37;;;;;;;10.05;2.38;;;18.80;99.90;;;;;;5055194;28;20210;-69
2022/06/09 09:06:26;;;;;;;8.48;1.90;;;19.50;99.90;;;;;;5055019;28;20040;-69
2022/06/09 09:08:55;;;;;;;6.78;1.67;;;18.90;99.90;;;;;;5071933;28;20099;-66
2022/06/09 09:11:44;;;;;;;5.38;1.35;;;18.20;99.90;;;;;;5072919;28;20043;-69
2022/06/09 09:14:28;;;;;;;8.90;2.17;;;19.10;99.90;;;;;;5072143;28;20134;-69
2022/06/09 09:17:02;;;;;;;;;;;19.20;99.90;;;;;;5074708;28;20047;-68
2022/06/09 09:19:54;;;;;;;5.90;1.40;;;18.80;99.90;;;;;;5074139;28;19915;-69
2022/06/09 09:22:31;;;;;;;5.68;2.15;;;18.90;99.90;;;;;;5074604;28;20071;-69
2022/06/09 09:24:59;;;;;;;7.90;1.77;;;19.30;99.90;;;;;;5092935;28;20098;-69
2022/06/09 09:27:34;;;;;;;17.40;2.13;;;19.60;99.90;;;;;;5058051;28;20494;-69
2022/06/09 09:30:28;;;;;;;7.15;1.77;;;18.90;99.90;;;;;;5073864;28;20040;-69
2022/06/09 09:32:56;;;;;;;11.02;2.25;;;18.90;99.90;;;;;;5037216;28;20055;-69
2022/06/09 09:35:23;;;;;;;4.60;1.70;;;20.40;99.90;;;;;;5074564;28;20043;-69
2022/06/09 09:37:52;;;;;;;6.68;1.67;;;19.10;99.90;;;;;;5092751;28;20123;-69
2022/06/09 09:40:39;;;;;;;9.43;2.08;;;19.10;99.90;;;;;;5091718;28;20583;-70
2022/06/09 09:43:20;;;;;;;8.23;2.13;;;19.50;99.90;;;;;;5074358;28;20040;-69
2022/06/09 09:45:55;;;;;;;10.32;3.03;;;20.80;99.90;;;;;;5085368;28;20040;-69
2022/06/09 09:48:21;;;;;;;6.32;1.63;;;19.60;99.90;;;;;;5054307;28;20481;-70
2022/06/09 09:51:11;;;;;;;17.15;2.40;;;19.80;99.90;;;;;;5071393;28;20036;-69
2022/06/09 09:53:46;;;;;;;5.53;2.15;;;19.20;99.90;;;;;;5072324;28;20075;-69
2022/06/09 09:56:17;;;;;;;7.55;1.50;;;20.20;99.90;;;;;;5072008;28;20561;-69
2022/06/09 09:58:49;;;;;;;8.20;1.20;;;19.60;99.90;;;;;;5054184;28;20208;-69
2022/06/09 10:01:17;;;;;;;9.38;1.88;;;19.50;99.90;;;;;;5071295;28;20402;-69
2022/06/09 10:09:43;;;;;;;7.13;1.20;;;19.10;99.90;;;;;;5091688;28;20494;-69
2022/06/09 10:12:09;;;;;;;7.35;2.50;;;19.10;99.90;;;;;;5057512;28;20122;-69
2022/06/09 10:14:43;;;;;;;16.63;2.63;;;20.90;99.90;;;;;;5062061;28;20040;-69
2022/06/09 10:17:27;;;;;;;6.90;1.25;;;19.60;99.90;;;;;;5071727;28;20165;-69
2022/06/09 10:20:04;;;;;;;6.13;1.20;;;19.50;99.90;;;;;;5052940;28;20170;-70
2022/06/09 10:22:34;;;;;;;6.65;1.30;;;19.20;99.90;;;;;;5053909;28;20040;-69
2022/06/09 10:25:24;;;;;;;8.65;1.60;;;19.00;99.90;;;;;;5057413;28;20040;-70
2022/06/09 10:27:58;;;;;;;7.57;1.52;;;19.00;99.90;;;;;;5091933;28;20394;-70
2022/06/09 10:30:41;;;;;;;7.18;1.42;;;19.80;99.90;;;;;;5073133;28;20051;-70
2022/06/09 10:33:29;;;;;;;6.70;1.40;;;19.30;99.90;;;;;;5057240;28;20040;-72
2022/06/09 10:36:12;;;;;;;8.75;1.73;;;19.20;99.90;;;;;;5073759;28;20032;-70
2022/06/09 10:38:48;;;;;;;7.38;1.33;;;19.80;99.90;;;;;;5092172;28;20046;-71
2022/06/09 10:41:21;;;;;;;8.55;1.92;;;20.40;99.90;;;;;;5073303;28;20131;-70
2022/06/09 10:43:56;;;;;;;10.80;1.63;;;20.30;99.90;;;;;;5072398;28;20040;-71
2022/06/09 10:46:27;;;;;;;7.93;2.13;;;20.40;99.90;;;;;;5083084;28;20044;-71
2022/06/09 10:55:33;;;;;;;6.00;1.80;;;19.60;99.90;;;;;;5078469;28;20032;-70
2022/06/09 10:58:23;;;;;;;5.80;1.35;;;19.50;99.90;;;;;;5058027;28;20051;-70
2022/06/09 11:00:50;;;;;;;9.45;1.90;;;19.80;99.90;;;;;;5041915;28;20558;-71
2022/06/09 11:03:23;;;;;;;6.88;1.50;;;19.60;99.90;;;;;;5075579;28;20043;-66
2022/06/09 11:05:53;;;;;;;5.68;1.40;;;20.10;99.90;;;;;;5050366;28;20104;-71
2022/06/09 11:08:38;;;;;;;7.60;1.50;;;19.90;99.90;;;;;;5085404;28;20429;-70
2022/06/09 11:11:25;;;;;;;6.97;1.60;;;20.00;99.90;;;;;;5064848;28;20040;-70
2022/06/09 11:14:15;;;;;;;6.13;1.58;;;20.20;99.90;;;;;;5085273;28;20064;-70
2022/06/09 11:16:50;;;;;;;9.30;1.38;;;20.00;99.90;;;;;;5084185;28;20036;-70
2022/06/09 11:19:30;;;;;;;9.15;1.85;;;20.00;99.90;;;;;;5085592;28;20160;-70
2022/06/09 11:22:20;;;;;;;8.57;1.48;;;20.10;99.90;;;;;;5061757;28;20387;-70
2022/06/09 11:25:01;;;;;;;9.70;1.67;;;19.90;99.90;;;;;;5058164;28;20067;-70
2022/06/09 11:27:44;;;;;;;6.07;1.60;;;19.40;99.90;;;;;;5077108;28;20037;-69
2022/06/09 11:30:15;;;;;;;6.88;2.03;;;19.90;99.90;;;;;;5069867;28;20041;-69
2022/06/09 11:32:59;;;;;;;7.15;1.67;;;20.20;99.90;;;;;;5071088;28;20045;-70
2022/06/09 11:35:40;;;;;;;3.10;1.10;;;20.10;99.90;;;;;;5044557;28;20044;-70
2022/06/09 11:38:12;;;;;;;5.60;1.50;;;20.20;99.90;;;;;;5083859;28;20467;-69
2022/06/09 11:41:15;;;;;;;7.43;1.48;;;19.90;99.90;;;;;;5081883;28;20118;-70
2022/06/09 11:43:52;;;;;;;8.25;1.65;;;19.70;99.90;;;;;;5067118;28;20115;-70
2022/06/09 11:46:29;;;;;;;7.10;1.70;;;19.70;99.90;;;;;;5084851;28;20733;-70
2022/06/09 11:48:59;;;;;;;8.15;2.45;;;19.50;99.90;;;;;;5080118;28;20047;-72
2022/06/09 11:51:27;;;;;;;6.88;1.30;;;19.90;99.90;;;;;;5056453;28;20044;-70
2022/06/09 11:53:56;;;;;;;4.90;1.20;;;19.80;99.90;;;;;;5058263;28;20093;-70
2022/06/09 11:56:45;;;;;;;3.95;1.02;;;21.00;99.90;;;;;;5094464;28;20035;-70
2022/06/09 11:59:21;;;;;;;6.78;1.95;;;19.80;99.90;;;;;;5075048;28;20055;-70
2022/06/09 12:01:55;;;;;;;7.97;2.53;;;19.70;99.90;;;;;;5094018;28;20044;-70
2022/06/09 12:04:57;;;;;;;6.57;1.63;;;19.50;99.90;;;;;;5075978;28;20501;-70
2022/06/09 12:07:36;;;;;;;5.72;1.60;;;20.10;99.90;;;;;;5075156;28;20032;-70
2022/06/09 12:10:21;;;;;;;6.63;1.70;;;19.90;99.90;;;;;;5079580;28;20024;-70
2022/06/09 12:13:12;;;;;;;10.35;1.70;;;20.00;99.90;;;;;;5067949;28;20036;-70
2022/06/09 12:15:52;;;;;;;7.80;1.35;;;20.30;99.90;;;;;;5075847;28;20048;-71
2022/06/09 12:18:19;;;;;;;6.55;1.73;;;19.90;99.90;;;;;;5076012;28;20040;-70
2022/06/09 12:20:48;;;;;;;6.75;1.40;;;20.60;99.90;;;;;;5075060;28;20383;-69
2022/06/09 12:23:34;;;;;;;7.32;1.98;;;19.90;99.90;;;;;;5075563;28;20040;-70
2022/06/09 12:26:09;;;;;;;4.88;1.80;;;19.60;99.90;;;;;;5075936;28;20037;-71
2022/06/09 12:28:50;;;;;;;9.52;1.92;;;19.80;99.90;;;;;;5075571;28;20122;-71
2022/06/09 12:31:34;;;;;;;8.65;1.60;;;19.80;99.90;;;;;;5093401;28;20084;-71
2022/06/09 12:34:00;;;;;;;6.60;1.40;;;20.10;99.90;;;;;;5093715;28;20566;-71
2022/06/09 12:36:55;;;;;;;4.85;1.70;;;20.20;99.90;;;;;;5076119;28;20042;-71
2022/06/09 12:39:35;;;;;;;8.10;2.15;;;20.10;99.90;;;;;;5074692;28;20248;-69
2022/06/09 12:42:15;;;;;;;7.75;1.95;;;20.50;99.90;;;;;;5075646;28;20404;-68
2022/06/09 12:44:49;;;;;;;9.75;1.60;;;19.90;99.90;;;;;;5093382;28;20032;-70
2022/06/09 12:47:22;;;;;;;6.40;1.30;;;20.50;99.90;;;;;;5093235;28;20058;-71
2022/06/09 12:50:00;;;;;;;5.25;1.80;;;20.00;99.90;;;;;;5072543;28;20055;-70
2022/06/09 12:52:43;;;;;;;5.82;1.30;;;19.90;99.90;;;;;;5090328;28;20032;-70
2022/06/09 12:55:17;;;;;;;;;;;20.40;99.90;;;;;;5093829;28;20053;-70
2022/06/09 12:57:59;;;;;;;6.28;1.60;;;20.60;99.90;;;;;;5093189;28;19923;-70
2022/06/09 13:00:33;;;;;;;3.80;1.10;;;20.40;99.90;;;;;;5092631;28;20044;-70
2022/06/09 13:02:59;;;;;;;6.57;1.23;;;21.30;99.90;;;;;;5075288;28;20487;-70
2022/06/09 13:05:35;;;;;;;6.00;1.58;;;21.60;99.90;;;;;;5093022;28;20056;-71
2022/06/09 13:08:06;;;;;;;7.38;1.90;;;20.50;99.90;;;;;;5092959;28;20085;-70
2022/06/09 13:10:34;;;;;;;7.65;1.85;;;21.60;99.90;;;;;;5092174;28;20043;-69
2022/06/09 13:13:15;;;;;;;7.80;1.50;;;20.80;99.90;;;;;;5068057;28;20029;-69
2022/06/09 13:16:00;;;;;;;11.30;1.92;;;20.00;99.90;;;;;;5054925;28;20067;-69
2022/06/09 13:18:39;;;;;;;5.78;1.58;;;20.10;99.90;;;;;;5054654;28;20072;-70
2022/06/09 13:21:20;;;;;;;8.63;1.50;;;20.60;99.90;;;;;;5076837;28;20117;-69
2022/06/09 13:23:50;;;;;;;8.93;1.67;;;20.60;99.90;;;;;;5054391;28;20082;-70
2022/06/09 13:26:22;;;;;;;11.07;1.40;;;21.10;99.90;;;;;;5054284;28;20044;-70
2022/06/09 13:28:50;;;;;;;8.50;1.80;;;20.60;99.90;;;;;;5054485;28;20162;-69
2022/06/09 13:31:27;;;;;;;8.75;1.75;;;21.10;99.90;;;;;;5037391;28;20032;-69